createdAt,value
2018-05-08T00:02:00.373Z,25.60
2018-05-08T00:04:27.825Z,25.60
2018-05-08T00:06:55.279Z,25.60
2018-05-08T00:09:22.744Z,25.50
2018-05-08T00:11:50.217Z,25.60
2018-05-08T00:14:17.664Z,25.50
2018-05-08T00:16:45.111Z,25.50
2018-05-08T00:19:12.572Z,25.50
2018-05-08T00:21:40.036Z,25.40
2018-05-08T00:24:07.473Z,25.30
2018-05-08T00:26:34.947Z,25.40
2018-05-08T00:29:03.168Z,25.30
2018-05-08T00:31:30.652Z,25.30
2018-05-08T00:33:58.871Z,25.20
2018-05-08T00:36:26.329Z,25.20
2018-05-08T00:38:53.787Z,25.30
2018-05-08T00:41:21.231Z,25.20
2018-05-08T00:43:48.688Z,25.20
2018-05-08T00:46:16.136Z,25.10
2018-05-08T00:48:43.611Z,25.10
2018-05-08T00:51:11.902Z,25.10
2018-05-08T00:53:39.324Z,25.10
2018-05-08T00:56:06.780Z,25.00
2018-05-08T00:58:34.240Z,25.00
2018-05-08T01:01:01.685Z,25.00
2018-05-08T01:03:29.152Z,25.00
2018-05-08T01:05:56.605Z,25.00
2018-05-08T01:08:24.068Z,24.90
2018-05-08T01:10:51.514Z,24.80
2018-05-08T01:13:18.983Z,24.80
2018-05-08T01:15:46.429Z,24.80
2018-05-08T01:18:14.667Z,24.80
2018-05-08T01:20:42.123Z,24.70
2018-05-08T01:23:09.580Z,24.70
2018-05-08T01:25:37.040Z,24.60
2018-05-08T01:28:04.507Z,24.50
2018-05-08T01:30:31.985Z,24.40
2018-05-08T01:32:59.447Z,24.40
2018-05-08T01:35:26.904Z,24.40
2018-05-08T01:37:54.376Z,24.30
2018-05-08T01:40:21.820Z,24.30
2018-05-08T01:42:49.275Z,24.30
2018-05-08T01:45:16.739Z,24.20
2018-05-08T01:47:44.204Z,24.20
2018-05-08T01:50:11.648Z,24.20
2018-05-08T01:52:39.104Z,24.10
2018-05-08T01:55:06.565Z,24.10
2018-05-08T01:57:34.159Z,24.20
2018-05-08T02:00:01.608Z,24.10
2018-05-08T02:02:29.060Z,24.00
2018-05-08T02:04:56.520Z,24.00
2018-05-08T02:07:23.963Z,23.90
2018-05-08T02:09:52.200Z,23.90
2018-05-08T02:12:20.421Z,23.80
2018-05-08T02:14:47.888Z,23.80
2018-05-08T02:17:15.332Z,23.80
2018-05-08T02:19:42.783Z,23.70
2018-05-08T02:22:10.231Z,23.60
2018-05-08T02:24:37.687Z,23.60
2018-05-08T02:27:05.147Z,23.60
2018-05-08T02:29:32.624Z,23.60
2018-05-08T02:32:00.076Z,23.50
2018-05-08T02:34:27.536Z,23.50
2018-05-08T02:36:55.763Z,23.40
2018-05-08T02:39:23.989Z,23.40
2018-05-08T02:41:51.440Z,23.30
2018-05-08T02:44:18.904Z,23.40
2018-05-08T02:46:46.363Z,23.30
2018-05-08T02:49:13.838Z,23.20
2018-05-08T02:51:41.284Z,23.30
2018-05-08T02:54:08.756Z,23.20
2018-05-08T02:56:36.234Z,23.20
2018-05-08T02:59:04.472Z,23.10
2018-05-08T03:01:32.696Z,23.10
2018-05-08T03:04:00.931Z,23.00
2018-05-08T03:06:28.402Z,23.00
2018-05-08T03:08:55.867Z,23.00
2018-05-08T03:11:23.324Z,23.00
2018-05-08T03:13:50.782Z,23.00
2018-05-08T03:16:18.243Z,23.00
2018-05-08T03:18:45.700Z,22.90
2018-05-08T03:21:13.170Z,22.90
2018-05-08T03:23:41.402Z,22.90
2018-05-08T03:26:08.859Z,22.80
2018-05-08T03:28:36.307Z,22.80
2018-05-08T03:31:04.549Z,22.70
2018-05-08T03:33:32.012Z,22.70
2018-05-08T03:35:59.477Z,22.60
2018-05-08T03:38:26.954Z,22.60
2018-05-08T03:40:55.184Z,22.50
2018-05-08T03:43:23.403Z,22.50
2018-05-08T03:45:50.856Z,22.40
2018-05-08T03:48:19.093Z,22.40
2018-05-08T03:50:47.311Z,22.40
2018-05-08T03:53:15.523Z,22.40
2018-05-08T03:55:42.983Z,22.30
2018-05-08T03:58:10.460Z,22.30
2018-05-08T04:00:50.585Z,22.20
2018-05-08T04:03:29.928Z,22.30
2018-05-08T04:08:54.600Z,22.30
2018-05-08T04:11:22.060Z,22.30
2018-05-08T04:13:49.517Z,22.20
2018-05-08T04:16:16.987Z,22.30
2018-05-08T04:18:44.428Z,22.20
2018-05-08T04:21:11.872Z,22.10
2018-05-08T04:23:39.328Z,22.10
2018-05-08T04:26:06.788Z,22.10
2018-05-08T04:28:34.246Z,22.10
2018-05-08T04:31:01.712Z,22.10
2018-05-08T04:33:29.172Z,22.10
2018-05-08T04:35:56.618Z,22.10
2018-05-08T04:38:24.084Z,22.10
2018-05-08T04:40:51.532Z,22.10
2018-05-08T04:43:18.988Z,22.10
2018-05-08T04:45:46.452Z,22.10
2018-05-08T04:48:13.912Z,22.00
2018-05-08T04:50:41.359Z,22.10
2018-05-08T04:53:08.830Z,22.10
2018-05-08T04:55:36.276Z,22.00
2018-05-08T04:58:03.745Z,22.00
2018-05-08T05:00:31.209Z,22.00
2018-05-08T05:02:58.663Z,22.00
2018-05-08T05:05:26.112Z,22.10
2018-05-08T05:07:53.571Z,22.00
2018-05-08T05:10:21.022Z,22.10
2018-05-08T05:12:48.484Z,22.00
2018-05-08T05:15:15.948Z,22.10
2018-05-08T05:17:43.405Z,22.10
2018-05-08T05:20:10.864Z,22.10
2018-05-08T05:22:38.316Z,22.00
2018-05-08T05:25:05.772Z,22.10
2018-05-08T05:27:33.230Z,22.00
2018-05-08T05:30:00.700Z,22.00
2018-05-08T05:32:28.149Z,22.00
2018-05-08T05:34:55.613Z,22.00
2018-05-08T05:37:23.860Z,22.10
2018-05-08T05:39:51.340Z,22.10
2018-05-08T05:42:18.795Z,22.10
2018-05-08T05:44:46.255Z,22.00
2018-05-08T05:47:13.728Z,22.10
2018-05-08T05:49:42.004Z,22.10
2018-05-08T05:52:09.465Z,22.10
2018-05-08T05:54:37.053Z,22.10
2018-05-08T05:57:04.536Z,22.20
2018-05-08T05:59:32.756Z,22.20
2018-05-08T06:02:00.985Z,22.20
2018-05-08T06:04:29.216Z,22.20
2018-05-08T06:06:56.671Z,22.20
2018-05-08T06:09:24.151Z,22.30
2018-05-08T06:11:51.614Z,22.30
2018-05-08T06:14:19.835Z,22.30
2018-05-08T06:16:48.076Z,22.40
2018-05-08T06:19:16.312Z,22.40
2018-05-08T06:21:44.536Z,22.50
2018-05-08T06:24:12.743Z,22.60
2018-05-08T06:26:40.237Z,22.60
2018-05-08T06:29:07.671Z,22.70
2018-05-08T06:31:35.131Z,22.80
2018-05-08T06:34:02.576Z,22.90
2018-05-08T06:36:30.032Z,23.10
2018-05-08T06:38:57.553Z,23.20
2018-05-08T06:41:26.884Z,23.40
2018-05-08T06:43:54.359Z,23.50
2018-05-08T06:46:22.625Z,23.70
2018-05-08T06:48:50.080Z,23.70
2018-05-08T06:51:18.352Z,24.00
2018-05-08T06:53:46.579Z,24.00
2018-05-08T06:56:14.048Z,24.00
2018-05-08T06:58:42.287Z,24.30
2018-05-08T07:01:10.547Z,24.40
2018-05-08T07:03:38.000Z,24.40
2018-05-08T07:06:05.460Z,24.50
2018-05-08T07:08:32.956Z,24.60
2018-05-08T07:11:00.592Z,24.80
2018-05-08T07:13:28.820Z,25.10
2018-05-08T07:15:57.056Z,25.20
2018-05-08T07:18:24.504Z,25.20
2018-05-08T07:20:51.959Z,25.40
2018-05-08T07:23:24.263Z,25.70
2018-05-08T07:25:51.892Z,25.70
2018-05-08T07:28:19.344Z,25.90
2018-05-08T07:30:46.787Z,26.10
2018-05-08T07:33:14.254Z,26.30
2018-05-08T07:35:41.705Z,26.40
2018-05-08T07:38:09.238Z,26.50
2018-05-08T07:40:36.615Z,26.70
2018-05-08T07:43:04.071Z,26.80
2018-05-08T07:45:31.575Z,27.00
2018-05-08T07:47:59.005Z,27.20
2018-05-08T07:50:26.470Z,27.30
2018-05-08T07:52:53.909Z,27.50
2018-05-08T07:55:21.367Z,27.70
2018-05-08T07:57:48.817Z,27.90
2018-05-08T08:00:16.276Z,28.00
2018-05-08T08:02:43.737Z,28.20
2018-05-08T08:05:11.195Z,28.40
2018-05-08T08:07:38.648Z,28.60
2018-05-08T08:10:06.115Z,28.80
2018-05-08T08:12:33.575Z,29.00
2018-05-08T08:15:01.032Z,29.20
2018-05-08T08:17:28.489Z,29.40
2018-05-08T08:19:55.937Z,29.50
2018-05-08T08:22:23.401Z,29.70
2018-05-08T08:24:50.853Z,29.90
2018-05-08T08:27:18.312Z,30.00
2018-05-08T08:29:45.815Z,30.20
2018-05-08T08:32:13.254Z,30.40
2018-05-08T08:34:40.691Z,30.60
2018-05-08T08:37:08.145Z,30.80
2018-05-08T08:39:35.594Z,31.00
2018-05-08T08:42:03.059Z,31.10
2018-05-08T08:44:30.501Z,31.40
2018-05-08T08:46:57.955Z,31.60
2018-05-08T08:49:26.183Z,32.00
2018-05-08T08:51:53.653Z,31.90
2018-05-08T08:54:21.124Z,32.10
2018-05-08T08:56:49.335Z,32.50
2018-05-08T08:59:16.782Z,32.50
2018-05-08T09:01:44.235Z,32.70
2018-05-08T09:04:11.700Z,32.90
2018-05-08T09:06:39.155Z,33.10
2018-05-08T09:09:06.613Z,33.30
2018-05-08T09:11:34.079Z,33.50
2018-05-08T09:14:01.535Z,33.70
2018-05-08T09:16:28.996Z,33.80
2018-05-08T09:18:56.447Z,34.00
2018-05-08T09:21:23.915Z,34.20
2018-05-08T09:23:51.364Z,34.30
2018-05-08T09:26:18.817Z,34.60
2018-05-08T09:28:46.687Z,34.80
2018-05-08T09:31:14.146Z,35.00
2018-05-08T09:33:41.618Z,35.10
2018-05-08T09:36:09.057Z,35.40
2018-05-08T09:38:36.518Z,35.50
2018-05-08T09:41:04.008Z,35.70
2018-05-08T09:43:31.434Z,35.90
2018-05-08T09:45:58.884Z,36.10
2018-05-08T09:48:26.337Z,36.30
2018-05-08T09:50:53.796Z,36.50
2018-05-08T09:53:21.255Z,36.70
2018-05-08T09:55:48.700Z,36.90
2018-05-08T09:58:16.155Z,37.00
2018-05-08T10:00:43.612Z,37.30
2018-05-08T10:03:11.079Z,37.40
2018-05-08T10:05:38.527Z,37.60
2018-05-08T10:08:05.988Z,37.80
2018-05-08T10:10:33.444Z,38.00
2018-05-08T10:13:00.900Z,38.10
2018-05-08T10:15:28.359Z,38.30
2018-05-08T10:17:55.836Z,38.40
2018-05-08T10:20:23.293Z,38.60
2018-05-08T10:22:50.791Z,38.80
2018-05-08T10:25:18.261Z,39.00
2018-05-08T10:27:45.712Z,39.00
2018-05-08T10:30:13.182Z,39.20
2018-05-08T10:32:40.645Z,39.50
2018-05-08T10:35:08.128Z,39.60
2018-05-08T10:37:35.588Z,39.70
2018-05-08T10:40:03.045Z,39.80
2018-05-08T10:42:30.510Z,40.10
2018-05-08T10:44:57.959Z,40.30
2018-05-08T10:47:25.418Z,40.40
2018-05-08T10:49:52.860Z,40.70
2018-05-08T10:52:20.331Z,41.90
2018-05-08T10:54:47.778Z,44.60
2018-05-08T10:57:15.261Z,47.10
2018-05-08T10:59:42.703Z,49.10
2018-05-08T11:02:10.151Z,50.90
2018-05-08T11:04:37.619Z,51.50
2018-05-08T11:07:05.060Z,51.80
2018-05-08T11:09:33.301Z,51.10
2018-05-08T11:12:00.857Z,51.00
2018-05-08T11:14:28.320Z,50.70
2018-05-08T11:16:55.776Z,51.00
2018-05-08T11:19:23.236Z,51.50
2018-05-08T11:21:50.703Z,51.90
2018-05-08T11:24:18.169Z,51.90
2018-05-08T11:26:45.656Z,51.90
2018-05-08T11:29:13.851Z,52.30
2018-05-08T11:31:41.309Z,52.30
2018-05-08T11:34:08.762Z,52.40
2018-05-08T11:36:36.208Z,52.70
2018-05-08T11:39:03.675Z,53.10
2018-05-08T11:41:31.129Z,53.60
2018-05-08T11:43:58.590Z,53.90
2018-05-08T11:46:26.044Z,54.30
2018-05-08T11:48:53.524Z,54.50
2018-05-08T11:51:20.960Z,55.00
2018-05-08T11:53:48.416Z,55.70
2018-05-08T11:58:49.772Z,55.90
2018-05-08T12:01:17.223Z,56.50
2018-05-08T12:03:44.688Z,56.90
2018-05-08T12:06:12.131Z,57.20
2018-05-08T12:08:39.599Z,57.60
2018-05-08T12:11:07.047Z,58.10
2018-05-08T12:13:34.519Z,58.10
2018-05-08T12:16:01.960Z,58.40
2018-05-08T12:18:29.420Z,58.60
2018-05-08T12:20:56.889Z,59.20
2018-05-08T12:23:24.343Z,59.50
2018-05-08T12:25:51.792Z,59.70
2018-05-08T12:28:19.260Z,60.20
2018-05-08T12:30:46.782Z,60.50
2018-05-08T12:33:14.172Z,60.60
2018-05-08T12:35:41.612Z,61.00
2018-05-08T12:38:09.836Z,61.00
2018-05-08T12:40:37.296Z,60.90
2018-05-08T12:43:04.746Z,61.20
2018-05-08T12:45:32.208Z,61.50
2018-05-08T12:47:59.652Z,61.60
2018-05-08T12:50:27.187Z,61.80
2018-05-08T12:52:54.561Z,61.70
2018-05-08T12:55:22.014Z,61.80
2018-05-08T12:57:49.456Z,61.90
2018-05-08T13:00:16.956Z,62.00
2018-05-08T13:02:44.403Z,62.00
2018-05-08T13:05:11.849Z,61.90
2018-05-08T13:07:39.306Z,61.90
2018-05-08T13:10:06.753Z,62.00
2018-05-08T13:12:34.215Z,62.00
2018-05-08T13:15:01.662Z,62.00
2018-05-08T13:17:29.144Z,62.10
2018-05-08T13:19:56.576Z,62.00
2018-05-08T13:22:24.015Z,62.10
2018-05-08T13:24:52.246Z,61.70
2018-05-08T13:27:19.700Z,61.80
2018-05-08T13:29:47.154Z,61.70
2018-05-08T13:32:14.592Z,61.50
2018-05-08T13:34:42.044Z,61.60
2018-05-08T13:37:09.499Z,61.20
2018-05-08T13:39:36.948Z,61.40
2018-05-08T13:42:04.517Z,61.10
2018-05-08T13:44:31.905Z,60.90
2018-05-08T13:46:59.361Z,60.80
2018-05-08T13:49:26.819Z,60.70
2018-05-08T13:51:54.280Z,60.30
2018-05-08T13:54:21.757Z,60.20
2018-05-08T13:56:49.224Z,60.10
2018-05-08T13:59:16.694Z,59.80
2018-05-08T14:01:44.157Z,59.50
2018-05-08T14:04:12.375Z,58.80
2018-05-08T14:06:39.942Z,58.80
2018-05-08T14:09:07.420Z,57.50
2018-05-08T14:11:34.747Z,55.10
2018-05-08T14:14:02.210Z,52.70
2018-05-08T14:16:29.663Z,51.20
2018-05-08T14:18:57.119Z,50.00
2018-05-08T14:21:24.580Z,49.20
2018-05-08T14:23:52.036Z,48.70
2018-05-08T14:26:19.503Z,48.10
2018-05-08T14:28:46.951Z,47.80
2018-05-08T14:31:14.410Z,47.50
2018-05-08T14:33:41.863Z,47.70
2018-05-08T14:36:09.336Z,48.90
2018-05-08T14:38:36.860Z,50.30
2018-05-08T14:41:04.284Z,50.90
2018-05-08T14:43:31.835Z,50.80
2018-05-08T14:45:59.976Z,48.60
2018-05-08T14:48:27.425Z,48.50
2018-05-08T14:50:54.885Z,47.10
2018-05-08T14:53:22.334Z,46.20
2018-05-08T14:55:49.825Z,45.30
2018-05-08T14:58:17.308Z,44.10
2018-05-08T15:00:44.772Z,41.90
2018-05-08T15:03:13.040Z,38.40
2018-05-08T15:05:40.505Z,38.30
2018-05-08T15:08:08.724Z,36.50
2018-05-08T15:10:36.184Z,36.40
2018-05-08T15:13:03.639Z,36.30
2018-05-08T15:15:31.096Z,36.20
2018-05-08T15:17:58.556Z,35.20
2018-05-08T15:20:26.013Z,35.10
2018-05-08T15:22:53.497Z,34.50
2018-05-08T15:25:20.976Z,34.00
2018-05-08T15:27:48.425Z,33.40
2018-05-08T15:30:15.924Z,33.40
2018-05-08T15:32:43.356Z,33.40
2018-05-08T15:35:11.576Z,33.30
2018-05-08T15:37:39.036Z,33.40
2018-05-08T15:40:06.492Z,33.40
2018-05-08T15:42:33.952Z,33.30
2018-05-08T15:45:01.421Z,32.90
2018-05-08T15:47:28.915Z,32.40
2018-05-08T15:49:57.172Z,31.10
2018-05-08T15:52:24.645Z,31.10
2018-05-08T15:54:52.112Z,31.60
2018-05-08T15:57:20.332Z,31.00
2018-05-08T15:59:47.816Z,31.00
2018-05-08T16:02:15.379Z,31.40
2018-05-08T16:04:42.748Z,31.20
2018-05-08T16:07:10.214Z,31.20
2018-05-08T16:09:38.708Z,31.10
2018-05-08T16:12:06.194Z,31.10
2018-05-08T16:14:33.651Z,31.00
2018-05-08T16:17:01.160Z,30.90
2018-05-08T16:19:28.611Z,30.60
2018-05-08T16:21:56.133Z,30.00
2018-05-08T16:24:25.504Z,30.20
2018-05-08T16:26:53.764Z,30.10
2018-05-08T16:29:22.016Z,30.30
2018-05-08T16:31:49.485Z,30.30
2018-05-08T16:34:16.932Z,30.00
2018-05-08T16:36:44.401Z,30.20
2018-05-08T16:39:11.855Z,30.20
2018-05-08T16:41:39.321Z,30.00
2018-05-08T16:44:06.781Z,30.00
2018-05-08T16:46:34.243Z,30.10
2018-05-08T16:49:02.475Z,30.40
2018-05-08T16:51:29.940Z,30.40
2018-05-08T16:53:57.482Z,30.40
2018-05-08T16:56:24.867Z,30.00
2018-05-08T16:58:52.303Z,30.10
2018-05-08T17:01:19.764Z,29.80
2018-05-08T17:03:47.215Z,29.70
2018-05-08T17:06:14.710Z,29.80
2018-05-08T17:08:42.999Z,29.80
2018-05-08T17:11:10.510Z,29.80
2018-05-08T17:13:37.990Z,29.70
2018-05-08T17:16:05.457Z,29.20
2018-05-08T17:18:32.912Z,29.10
2018-05-08T17:21:00.372Z,29.30
2018-05-08T17:23:27.842Z,29.30
2018-05-08T17:25:55.312Z,29.40
2018-05-08T17:28:23.537Z,28.90
2018-05-08T17:30:50.991Z,28.90
2018-05-08T17:33:18.496Z,28.60
2018-05-08T17:35:45.909Z,28.80
2018-05-08T17:38:13.356Z,28.80
2018-05-08T17:40:40.811Z,28.90
2018-05-08T17:43:08.276Z,28.90
2018-05-08T17:45:35.731Z,29.10
2018-05-08T17:48:03.196Z,29.20
2018-05-08T17:50:30.657Z,29.10
2018-05-08T17:52:58.134Z,29.00
2018-05-08T17:55:25.628Z,29.00
2018-05-08T17:57:53.902Z,28.80
2018-05-08T18:00:21.380Z,28.70
2018-05-08T18:02:49.003Z,28.60
2018-05-08T18:05:18.818Z,28.60
2018-05-08T18:07:46.280Z,28.60
2018-05-08T18:10:13.737Z,28.50
2018-05-08T18:12:41.192Z,28.50
2018-05-08T18:15:14.600Z,28.50
2018-05-08T18:17:42.175Z,28.50
2018-05-08T18:20:09.597Z,28.40
2018-05-08T18:22:37.068Z,28.30
2018-05-08T18:25:04.531Z,27.90
2018-05-08T18:27:33.399Z,28.00
2018-05-08T18:30:00.853Z,27.90
2018-05-08T18:32:28.328Z,27.90
2018-05-08T18:34:55.806Z,27.80
2018-05-08T18:37:24.039Z,27.60
2018-05-08T18:39:51.512Z,27.60
2018-05-08T18:42:18.976Z,27.70
2018-05-08T18:44:46.428Z,27.50
2018-05-08T18:47:13.889Z,27.40
2018-05-08T18:49:41.356Z,27.20
2018-05-08T18:52:09.599Z,26.90
2018-05-08T18:54:37.064Z,26.90
2018-05-08T18:57:04.514Z,26.90
2018-05-08T18:59:31.988Z,26.80
2018-05-08T19:01:59.456Z,26.80
2018-05-08T19:04:26.903Z,26.60
2018-05-08T19:06:55.534Z,26.50
2018-05-08T19:09:22.901Z,26.40
2018-05-08T19:11:55.984Z,26.40
2018-05-08T19:14:23.560Z,26.30
2018-05-08T19:16:51.043Z,26.30
2018-05-08T19:19:24.153Z,26.20
2018-05-08T19:21:52.404Z,27.10
2018-05-08T19:24:25.552Z,27.10
2018-05-08T19:26:53.082Z,27.40
2018-05-08T19:29:26.115Z,27.60
2018-05-08T19:31:53.717Z,27.70
2018-05-08T19:34:21.168Z,27.80
2018-05-08T19:36:54.314Z,27.90
2018-05-08T19:39:22.017Z,27.90
2018-05-08T19:41:49.486Z,28.00
2018-05-08T19:44:16.940Z,28.00
2018-05-08T19:46:44.398Z,28.10
2018-05-08T19:49:11.852Z,28.00
2018-05-08T19:51:39.349Z,28.10
2018-05-08T19:54:07.573Z,28.10
2018-05-08T19:56:35.045Z,28.10
2018-05-08T19:59:02.511Z,28.10
2018-05-08T20:01:29.968Z,28.10
2018-05-08T20:03:57.420Z,28.10
2018-05-08T20:06:24.861Z,28.10
2018-05-08T20:08:52.380Z,28.10
2018-05-08T20:11:19.796Z,28.10
2018-05-08T20:13:47.253Z,28.10
2018-05-08T20:16:14.717Z,28.10
2018-05-08T20:18:42.221Z,28.10
2018-05-08T20:21:09.680Z,28.10
2018-05-08T20:23:37.159Z,28.00
2018-05-08T20:26:04.655Z,28.00
2018-05-08T20:28:32.184Z,28.00
2018-05-08T20:30:59.644Z,28.00
2018-05-08T20:33:27.108Z,28.00
2018-05-08T20:38:28.392Z,28.00
2018-05-08T20:40:55.841Z,27.90
2018-05-08T20:43:23.304Z,27.90
2018-05-08T20:45:53.156Z,27.90
2018-05-08T20:48:20.635Z,27.90
2018-05-08T20:50:48.108Z,27.90
2018-05-08T20:53:15.563Z,27.80
2018-05-08T20:55:43.031Z,27.80
2018-05-08T20:58:10.481Z,27.80
2018-05-08T21:00:37.938Z,27.80
2018-05-08T21:03:05.392Z,27.80
2018-05-08T21:05:32.860Z,27.80
2018-05-08T21:08:00.309Z,27.70
2018-05-08T21:10:27.772Z,27.70
2018-05-08T21:12:55.232Z,27.60
2018-05-08T21:15:23.476Z,27.60
2018-05-08T21:17:50.995Z,27.60
2018-05-08T21:20:18.396Z,27.60
2018-05-08T21:22:45.866Z,27.50
2018-05-08T21:25:13.336Z,27.50
2018-05-08T21:27:46.503Z,27.50
2018-05-08T21:30:19.672Z,27.40
2018-05-08T21:32:47.885Z,27.40
2018-05-08T21:35:15.351Z,27.30
2018-05-08T21:37:42.816Z,27.30
2018-05-08T21:40:11.039Z,27.30
2018-05-08T21:42:38.489Z,27.20
2018-05-08T21:45:05.956Z,27.30
2018-05-08T21:47:33.409Z,27.20
2018-05-08T21:50:00.871Z,27.20
2018-05-08T21:52:28.321Z,27.10
2018-05-08T21:54:55.780Z,27.10
2018-05-08T21:57:23.249Z,27.10
2018-05-08T21:59:50.705Z,27.10
2018-05-08T22:02:18.151Z,27.10
2018-05-08T22:04:45.610Z,27.10
2018-05-08T22:07:13.076Z,27.10
2018-05-08T22:09:40.622Z,27.10
2018-05-08T22:12:08.009Z,27.10
2018-05-08T22:14:35.483Z,27.10
2018-05-08T22:17:03.696Z,27.10
2018-05-08T22:19:31.168Z,27.10
2018-05-08T22:21:58.624Z,27.10
2018-05-08T22:24:26.857Z,27.10
2018-05-08T22:26:54.328Z,27.10
2018-05-08T22:29:21.787Z,27.00
2018-05-08T22:31:50.025Z,26.90
2018-05-08T22:34:17.496Z,26.90
2018-05-08T22:36:44.963Z,26.90
2018-05-08T22:39:12.428Z,26.90
2018-05-08T22:41:39.891Z,26.90
2018-05-08T22:44:07.352Z,26.90
2018-05-08T22:46:34.812Z,26.80
2018-05-08T22:49:03.788Z,26.80
2018-05-08T22:51:31.248Z,26.80
2018-05-08T22:53:58.714Z,26.80
2018-05-08T22:56:26.945Z,26.70
2018-05-08T22:58:54.425Z,26.70
2018-05-08T23:01:21.878Z,26.60
2018-05-08T23:03:49.343Z,26.70
2018-05-08T23:06:17.601Z,26.70
2018-05-08T23:08:45.151Z,26.70
2018-05-08T23:11:14.778Z,26.70
2018-05-08T23:13:42.245Z,26.70
2018-05-08T23:16:09.735Z,26.60
2018-05-08T23:18:37.221Z,26.60
2018-05-08T23:21:06.735Z,26.50
2018-05-08T23:23:34.234Z,26.50
2018-05-08T23:26:01.660Z,26.50
2018-05-08T23:28:29.107Z,26.30
2018-05-08T23:30:56.596Z,26.20
2018-05-08T23:33:24.053Z,26.30
2018-05-08T23:35:51.508Z,26.20
2018-05-08T23:38:19.000Z,26.10
2018-05-08T23:40:46.471Z,26.20
2018-05-08T23:43:13.937Z,26.10
2018-05-08T23:45:42.159Z,26.10
2018-05-08T23:48:10.420Z,26.10
2018-05-08T23:50:37.885Z,26.10
2018-05-08T23:53:05.347Z,25.90
2018-05-08T23:55:32.801Z,25.90
2018-05-08T23:58:00.248Z,25.90
